createdAt,value
2023-09-05T00:00:05.203Z,101426.78
2023-09-05T00:02:31.545Z,101424.25
2023-09-05T00:04:57.961Z,101428.91
2023-09-05T00:07:24.771Z,101419.22
2023-09-05T00:09:51.100Z,101422.19
2023-09-05T00:12:17.407Z,101422.19
2023-09-05T00:14:43.719Z,101412.50
2023-09-05T00:17:09.992Z,101412.75
2023-09-05T00:19:36.286Z,101413.78
2023-09-05T00:22:02.634Z,101414.88
2023-09-05T00:24:39.334Z,101404.13
2023-09-05T00:27:13.000Z,101412.59
2023-09-05T00:29:40.360Z,101408.13
2023-09-05T00:32:06.744Z,101411.94
2023-09-05T00:34:37.386Z,101418.47
2023-09-05T00:37:04.984Z,101416.78
2023-09-05T00:39:31.575Z,101424.41
2023-09-05T00:41:58.084Z,101429.88
2023-09-05T00:44:24.876Z,101435.34
2023-09-05T00:46:51.524Z,101428.16
2023-09-05T00:49:17.812Z,101432.81
2023-09-05T00:51:47.138Z,101431.97
2023-09-05T00:54:13.509Z,101439.56
2023-09-05T00:56:40.109Z,101443.38
2023-09-05T00:59:06.701Z,101438.94
2023-09-05T01:01:33.115Z,101443.78
2023-09-05T01:03:59.536Z,101440.47
2023-09-05T01:06:38.479Z,101439.84
2023-09-05T01:09:26.145Z,101438.38
2023-09-05T01:11:53.594Z,101441.56
2023-09-05T01:14:19.854Z,101444.75
2023-09-05T01:16:46.426Z,101427.91
2023-09-05T01:19:16.063Z,101444.75
2023-09-05T01:22:02.608Z,101443.50
2023-09-05T01:24:28.949Z,101447.53
2023-09-05T01:26:55.921Z,101439.16
2023-09-05T01:29:36.055Z,101441.47
2023-09-05T01:32:03.428Z,101425.72
2023-09-05T01:34:30.585Z,101433.97
2023-09-05T01:36:57.030Z,101426.66
2023-09-05T01:39:23.348Z,101431.28
2023-09-05T01:41:49.996Z,101430.25
2023-09-05T01:44:16.641Z,101427.31
2023-09-05T01:46:43.181Z,101427.13
2023-09-05T01:49:09.800Z,101427.75
2023-09-05T01:51:36.236Z,101439.31
2023-09-05T01:54:02.559Z,101438.28
2023-09-05T01:56:28.859Z,101446.28
2023-09-05T01:58:55.276Z,101442.34
2023-09-05T02:01:21.664Z,101444.88
2023-09-05T02:03:49.079Z,101443.41
2023-09-05T02:06:15.489Z,101446.75
2023-09-05T02:08:41.976Z,101447.19
2023-09-05T02:11:12.002Z,101443.00
2023-09-05T02:13:38.329Z,101446.34
2023-09-05T02:16:04.841Z,101446.16
2023-09-05T02:18:31.145Z,101447.63
2023-09-05T02:20:57.968Z,101448.06
2023-09-05T02:23:24.572Z,101442.16
2023-09-05T02:26:00.848Z,101436.31
2023-09-05T02:28:27.517Z,101435.88
2023-09-05T02:30:54.206Z,101438.78
2023-09-05T02:33:20.951Z,101440.25
2023-09-05T02:35:47.352Z,101432.50
2023-09-05T02:38:16.409Z,101423.06
2023-09-05T02:40:48.841Z,101432.69
2023-09-05T02:43:15.152Z,101435.84
2023-09-05T02:45:41.573Z,101437.94
2023-09-05T02:48:08.714Z,101440.47
2023-09-05T02:50:35.227Z,101444.44
2023-09-05T02:53:01.495Z,101449.50
2023-09-05T02:55:27.815Z,101445.47
2023-09-05T02:57:55.193Z,101439.63
2023-09-05T03:00:21.702Z,101447.38
2023-09-05T03:02:50.478Z,101443.38
2023-09-05T03:05:16.906Z,101444.63
2023-09-05T03:07:43.214Z,101446.94
2023-09-05T03:10:09.709Z,101441.88
2023-09-05T03:12:36.044Z,101434.13
2023-09-05T03:15:02.387Z,101441.06
2023-09-05T03:17:28.728Z,101438.75
2023-09-05T03:19:55.116Z,101428.22
2023-09-05T03:22:21.461Z,101428.63
2023-09-05T03:24:47.916Z,101429.88
2023-09-05T03:27:14.523Z,101438.28
2023-09-05T03:29:40.877Z,101435.97
2023-09-05T03:32:07.172Z,101446.25
2023-09-05T03:34:35.124Z,101437.41
2023-09-05T03:37:01.402Z,101429.41
2023-09-05T03:39:27.711Z,101431.53
2023-09-05T03:41:54.093Z,101432.78
2023-09-05T03:44:20.366Z,101421.41
2023-09-05T03:46:46.767Z,101421.84
2023-09-05T03:49:13.172Z,101418.69
2023-09-05T03:51:39.438Z,101416.38
2023-09-05T03:54:05.933Z,101423.25
2023-09-05T03:56:32.305Z,101419.25
2023-09-05T03:58:58.609Z,101413.38
2023-09-05T04:01:25.615Z,101420.06
2023-09-05T04:03:51.985Z,101418.59
2023-09-05T04:06:18.946Z,101415.44
2023-09-05T04:08:45.528Z,101421.31
2023-09-05T04:11:11.940Z,101423.38
2023-09-05T04:13:38.242Z,101415.63
2023-09-05T04:16:08.604Z,101418.75
2023-09-05T04:18:35.664Z,101419.34
2023-09-05T04:21:02.141Z,101419.56
2023-09-05T04:23:28.870Z,101427.06
2023-09-05T04:25:56.589Z,101422.03
2023-09-05T04:28:22.901Z,101424.13
2023-09-05T04:30:49.267Z,101425.38
2023-09-05T04:33:15.628Z,101420.13
2023-09-05T04:35:41.971Z,101420.53
2023-09-05T04:38:08.352Z,101418.66
2023-09-05T04:40:34.657Z,101418.84
2023-09-05T04:43:00.919Z,101421.56
2023-09-05T04:45:27.225Z,101421.78
2023-09-05T04:47:54.033Z,101422.78
2023-09-05T04:50:20.389Z,101421.97
2023-09-05T04:52:46.697Z,101421.97
2023-09-05T04:55:13.097Z,101430.13
2023-09-05T04:57:43.108Z,101432.03
2023-09-05T05:00:11.095Z,101432.84
2023-09-05T05:02:37.651Z,101433.69
2023-09-05T05:05:04.147Z,101435.38
2023-09-05T05:07:30.652Z,101434.56
2023-09-05T05:09:56.985Z,101432.66
2023-09-05T05:12:23.351Z,101426.16
2023-09-05T05:14:49.652Z,101432.44
2023-09-05T05:17:16.050Z,101431.63
2023-09-05T05:19:42.576Z,101429.72
2023-09-05T05:22:09.120Z,101437.72
2023-09-05T05:24:36.392Z,101436.66
2023-09-05T05:27:02.764Z,101445.47
2023-09-05T05:29:33.381Z,101441.50
2023-09-05T05:32:01.464Z,101439.44
2023-09-05T05:34:27.977Z,101446.13
2023-09-05T05:36:54.301Z,101446.78
2023-09-05T05:39:23.229Z,101435.47
2023-09-05T05:41:49.911Z,101443.06
2023-09-05T05:44:16.823Z,101440.75
2023-09-05T05:46:44.902Z,101437.66
2023-09-05T05:49:11.520Z,101429.72
2023-09-05T05:51:38.408Z,101429.94
2023-09-05T05:54:04.725Z,101432.03
2023-09-05T05:56:31.106Z,101435.00
2023-09-05T05:58:57.382Z,101427.06
2023-09-05T06:01:23.712Z,101428.97
2023-09-05T06:03:50.032Z,101433.59
2023-09-05T06:06:16.501Z,101434.66
2023-09-05T06:08:43.067Z,101433.69
2023-09-05T06:11:09.527Z,101429.91
2023-09-05T06:13:35.880Z,101434.13
2023-09-05T06:16:02.265Z,101435.81
2023-09-05T06:18:29.079Z,101428.28
2023-09-05T06:20:55.988Z,101436.88
2023-09-05T06:23:22.506Z,101427.47
2023-09-05T06:25:48.910Z,101427.88
2023-09-05T06:28:15.305Z,101426.41
2023-09-05T06:30:41.621Z,101430.41
2023-09-05T06:33:07.967Z,101430.81
2023-09-05T06:35:35.967Z,101433.72
2023-09-05T06:38:02.271Z,101427.63
2023-09-05T06:40:28.563Z,101424.25
2023-09-05T06:42:55.045Z,101435.31
2023-09-05T06:45:22.067Z,101422.88
2023-09-05T06:47:48.541Z,101435.69
2023-09-05T06:50:14.842Z,101425.75
2023-09-05T06:52:41.229Z,101422.34
2023-09-05T06:55:07.812Z,101418.91
2023-09-05T06:57:34.392Z,101427.25
2023-09-05T07:00:00.807Z,101427.38
2023-09-05T07:02:27.086Z,101432.75
2023-09-05T07:04:53.447Z,101433.13
2023-09-05T07:07:20.069Z,101440.66
2023-09-05T07:09:46.325Z,101430.03
2023-09-05T07:12:13.058Z,101428.47
2023-09-05T07:14:39.378Z,101437.84
2023-09-05T07:17:08.268Z,101439.81
2023-09-05T07:19:34.616Z,101435.50
2023-09-05T07:22:00.888Z,101435.84
2023-09-05T07:24:27.258Z,101432.59
2023-09-05T07:26:54.080Z,101430.16
2023-09-05T07:29:20.429Z,101436.78
2023-09-05T07:31:46.796Z,101428.81
2023-09-05T07:34:13.172Z,101433.75
2023-09-05T07:36:42.186Z,101442.28
2023-09-05T07:39:08.749Z,101435.44
2023-09-05T07:41:35.036Z,101436.78
2023-09-05T07:44:04.180Z,101435.63
2023-09-05T07:46:30.577Z,101439.69
2023-09-05T07:48:56.933Z,101432.47
2023-09-05T07:51:24.169Z,101440.09
2023-09-05T07:54:04.447Z,101442.75
2023-09-05T07:56:31.500Z,101439.66
2023-09-05T07:58:57.894Z,101444.19
2023-09-05T08:01:25.077Z,101444.38
2023-09-05T08:03:52.089Z,101447.00
2023-09-05T08:06:18.638Z,101435.91
2023-09-05T08:08:44.968Z,101435.53
2023-09-05T08:11:11.282Z,101435.44
2023-09-05T08:13:37.603Z,101434.25
2023-09-05T08:16:04.983Z,101438.28
2023-09-05T08:18:31.526Z,101437.91
2023-09-05T08:21:00.977Z,101439.47
2023-09-05T08:23:27.593Z,101438.31
2023-09-05T08:25:57.463Z,101435.16
2023-09-05T08:28:23.766Z,101443.03
2023-09-05T08:30:50.088Z,101436.34
2023-09-05T08:33:16.500Z,101426.88
2023-09-05T08:35:42.847Z,101429.81
2023-09-05T08:38:09.143Z,101426.69
2023-09-05T08:40:35.836Z,101423.53
2023-09-05T08:43:02.626Z,101425.97
2023-09-05T08:45:30.574Z,101424.47
2023-09-05T08:47:58.780Z,101421.31
2023-09-05T08:50:27.312Z,101421.72
2023-09-05T08:52:54.228Z,101428.75
2023-09-05T08:55:22.279Z,101422.81
2023-09-05T08:57:48.942Z,101423.25
2023-09-05T09:00:19.051Z,101419.00
2023-09-05T09:02:45.590Z,101406.53
2023-09-05T09:05:12.000Z,101411.84
2023-09-05T09:07:39.094Z,101409.50
2023-09-05T09:10:16.986Z,101411.84
2023-09-05T09:12:44.331Z,101405.63
2023-09-05T09:15:13.741Z,101399.66
2023-09-05T09:17:43.670Z,101395.41
2023-09-05T09:20:13.322Z,101399.38
2023-09-05T09:22:40.383Z,101396.22
2023-09-05T09:25:11.866Z,101389.16
2023-09-05T09:27:38.244Z,101399.47
2023-09-05T09:30:07.900Z,101394.59
2023-09-05T09:32:34.808Z,101400.50
2023-09-05T09:35:03.780Z,101403.03
2023-09-05T09:37:31.037Z,101400.91
2023-09-05T09:39:57.877Z,101403.50
2023-09-05T09:42:27.203Z,101393.06
2023-09-05T09:44:53.888Z,101387.34
2023-09-05T09:47:20.267Z,101394.34
2023-09-05T09:49:48.538Z,101385.00
2023-09-05T09:52:16.294Z,101386.44
2023-09-05T09:54:44.923Z,101383.47
2023-09-05T09:57:14.250Z,101384.88
2023-09-05T10:00:00.828Z,101382.53
2023-09-05T10:02:27.914Z,101382.84
2023-09-05T10:04:54.764Z,101374.06
2023-09-05T10:07:22.111Z,101379.09
2023-09-05T10:09:50.548Z,101380.28
2023-09-05T10:12:24.604Z,101385.53
2023-09-05T10:14:52.353Z,101380.63
2023-09-05T10:17:20.872Z,101375.69
2023-09-05T10:19:47.497Z,101385.44
2023-09-05T10:22:17.760Z,101379.94
2023-09-05T10:24:44.691Z,101381.63
2023-09-05T10:27:11.931Z,101360.34
2023-09-05T10:29:45.319Z,101366.72
2023-09-05T10:32:15.073Z,101368.69
2023-09-05T10:34:59.280Z,101358.75
2023-09-05T10:37:28.958Z,101355.97
2023-09-05T10:39:57.081Z,101357.94
2023-09-05T10:42:30.191Z,101353.78
2023-09-05T10:44:57.316Z,101354.63
2023-09-05T10:47:24.563Z,101355.50
2023-09-05T10:49:57.285Z,101356.09
2023-09-05T10:52:23.666Z,101351.94
2023-09-05T10:54:50.322Z,101350.84
2023-09-05T10:57:36.009Z,101348.38
2023-09-05T11:00:30.133Z,101346.13
2023-09-05T11:02:57.570Z,101345.56
2023-09-05T11:05:28.045Z,101348.09
2023-09-05T11:07:56.463Z,101349.78
2023-09-05T11:10:30.077Z,101348.69
2023-09-05T11:12:57.010Z,101349.19
2023-09-05T11:15:33.187Z,101349.75
2023-09-05T11:18:00.555Z,101338.41
2023-09-05T11:20:40.462Z,101338.66
2023-09-05T11:23:23.147Z,101336.13
2023-09-05T11:25:51.730Z,101333.94
2023-09-05T11:28:18.098Z,101337.25
2023-09-05T11:30:46.705Z,101330.28
2023-09-05T11:33:16.474Z,101335.50
2023-09-05T11:35:42.931Z,101333.53
2023-09-05T11:38:09.989Z,101331.56
2023-09-05T11:40:36.727Z,101324.91
2023-09-05T11:43:07.281Z,101324.88
2023-09-05T11:45:38.334Z,101323.72
2023-09-05T11:48:09.955Z,101325.38
2023-09-05T11:50:36.347Z,101325.91
2023-09-05T11:53:03.720Z,101321.97
2023-09-05T11:55:30.479Z,101318.06
2023-09-05T11:57:57.865Z,101319.97
2023-09-05T12:00:24.930Z,101308.31
2023-09-05T12:02:55.410Z,101308.53
2023-09-05T12:05:21.796Z,101310.75
2023-09-05T12:07:54.623Z,101310.72
2023-09-05T12:10:21.371Z,101314.56
2023-09-05T12:12:54.985Z,101309.25
2023-09-05T12:15:31.330Z,101306.16
2023-09-05T12:17:58.791Z,101302.25
2023-09-05T12:20:25.192Z,101295.84
2023-09-05T12:22:51.486Z,101290.50
2023-09-05T12:25:20.923Z,101292.97
2023-09-05T12:27:50.622Z,101287.34
2023-09-05T12:30:27.169Z,101295.63
2023-09-05T12:32:54.570Z,101287.81
2023-09-05T12:35:20.914Z,101291.97
2023-09-05T12:37:47.219Z,101283.34
2023-09-05T12:40:16.151Z,101281.94
2023-09-05T12:42:45.553Z,101288.00
2023-09-05T12:45:13.140Z,101285.78
2023-09-05T12:47:39.827Z,101275.19
2023-09-05T12:50:12.978Z,101277.69
2023-09-05T12:52:40.646Z,101282.13
2023-09-05T12:55:07.462Z,101276.28
2023-09-05T12:57:33.861Z,101276.78
2023-09-05T13:00:01.998Z,101279.03
2023-09-05T13:02:28.398Z,101272.88
2023-09-05T13:04:54.744Z,101279.50
2023-09-05T13:07:21.088Z,101271.69
2023-09-05T13:09:47.389Z,101270.00
2023-09-05T13:12:13.768Z,101261.06
2023-09-05T13:14:40.136Z,101254.06
2023-09-05T13:17:06.465Z,101245.94
2023-09-05T13:19:32.834Z,101245.66
2023-09-05T13:21:59.204Z,101231.44
2023-09-05T13:24:26.112Z,101241.16
2023-09-05T13:26:54.973Z,101237.75
2023-09-05T13:29:22.545Z,101242.75
2023-09-05T13:31:49.096Z,101248.81
2023-09-05T13:34:15.513Z,101236.28
2023-09-05T13:36:42.000Z,101240.41
2023-09-05T13:39:09.535Z,101232.59
2023-09-05T13:41:36.164Z,101230.34
2023-09-05T13:44:02.668Z,101243.94
2023-09-05T13:46:29.185Z,101233.06
2023-09-05T13:48:55.580Z,101232.50
2023-09-05T13:51:23.499Z,101228.59
2023-09-05T13:53:50.250Z,101232.44
2023-09-05T13:56:16.723Z,101220.97
2023-09-05T13:58:43.486Z,101221.53
2023-09-05T14:01:09.930Z,101223.19
2023-09-05T14:03:36.394Z,101213.41
2023-09-05T14:06:02.955Z,101217.03
2023-09-05T14:08:29.721Z,101211.13
2023-09-05T14:10:56.611Z,101212.81
2023-09-05T14:13:23.032Z,101208.59
2023-09-05T14:15:49.349Z,101209.13
2023-09-05T14:18:15.963Z,101206.03
2023-09-05T14:20:42.420Z,101208.53
2023-09-05T14:23:08.809Z,101200.66
2023-09-05T14:25:35.387Z,101207.91
2023-09-05T14:28:05.353Z,101196.78
2023-09-05T14:30:32.345Z,101195.09
2023-09-05T14:32:59.017Z,101183.97
2023-09-05T14:35:25.335Z,101189.53
2023-09-05T14:37:51.586Z,101191.22
2023-09-05T14:40:18.289Z,101189.53
2023-09-05T14:42:44.703Z,101183.97
2023-09-05T14:45:11.757Z,101178.41
2023-09-05T14:47:38.299Z,101178.41
2023-09-05T14:50:11.224Z,101173.44
2023-09-05T14:52:45.839Z,101179.88
2023-09-05T14:55:18.251Z,101179.00
2023-09-05T14:57:44.706Z,101176.56
2023-09-05T15:00:12.858Z,101165.41
2023-09-05T15:02:39.676Z,101170.97
2023-09-05T15:05:07.544Z,101172.63
2023-09-05T15:07:37.041Z,101169.03
2023-09-05T15:10:11.232Z,101176.56
2023-09-05T15:12:46.964Z,101175.72
2023-09-05T15:15:15.691Z,101174.88
2023-09-05T15:17:43.623Z,101167.66
2023-09-05T15:20:22.502Z,101174.06
2023-09-05T15:22:59.615Z,101173.25
2023-09-05T15:25:30.104Z,101177.97
2023-09-05T15:27:56.510Z,101170.75
2023-09-05T15:30:23.053Z,101167.97
2023-09-05T15:32:49.462Z,101167.97
2023-09-05T15:35:20.627Z,101166.03
2023-09-05T15:37:47.169Z,101166.84
2023-09-05T15:40:21.304Z,101162.09
2023-09-05T15:45:58.605Z,101160.66
2023-09-05T15:48:28.712Z,101151.19
2023-09-05T15:51:05.436Z,101151.19
2023-09-05T15:53:46.376Z,101156.13
2023-09-05T15:56:24.514Z,101153.06
2023-09-05T15:58:54.746Z,101154.69
2023-09-05T16:01:33.451Z,101158.84
2023-09-05T16:09:50.109Z,101144.25
2023-09-05T16:15:00.190Z,101159.06
2023-09-05T16:17:44.172Z,101167.88
2023-09-05T16:20:11.393Z,101156.53
2023-09-05T16:22:38.126Z,101152.44
2023-09-05T16:25:04.820Z,101152.25
2023-09-05T16:27:31.450Z,101154.53
2023-09-05T16:29:57.824Z,101156.84
2023-09-05T16:32:24.281Z,101158.25
2023-09-05T16:34:56.813Z,101162.81
2023-09-05T16:37:23.321Z,101161.75
2023-09-05T16:39:49.728Z,101171.09
2023-09-05T16:42:16.119Z,101164.25
2023-09-05T16:44:42.499Z,101161.34
2023-09-05T16:47:09.019Z,101167.97
2023-09-05T16:49:36.700Z,101169.81
2023-09-05T16:52:03.121Z,101167.75
2023-09-05T16:54:40.781Z,101173.69
2023-09-05T16:57:07.208Z,101168.53
2023-09-05T16:59:33.580Z,101176.19
2023-09-05T17:02:01.972Z,101172.63
2023-09-05T17:04:28.427Z,101174.66
2023-09-05T17:06:55.602Z,101168.94
2023-09-05T17:09:22.320Z,101172.44
2023-09-05T17:11:51.637Z,101169.88
2023-09-05T17:14:19.742Z,101158.06
2023-09-05T17:16:46.167Z,101166.31
2023-09-05T17:19:12.587Z,101164.31
2023-09-05T17:21:52.619Z,101170.22
2023-09-05T17:24:19.569Z,101178.75
2023-09-05T17:26:45.944Z,101175.06
2023-09-05T17:29:13.543Z,101183.50
2023-09-05T17:31:40.138Z,101180.19
2023-09-05T17:34:08.098Z,101175.91
2023-09-05T17:36:35.717Z,101177.19
2023-09-05T17:39:02.278Z,101173.13
2023-09-05T17:41:28.811Z,101170.78
2023-09-05T17:43:57.687Z,101173.59
2023-09-05T17:49:09.076Z,101179.22
2023-09-05T17:51:36.015Z,101178.59
2023-09-05T17:54:02.520Z,101182.47
2023-09-05T17:56:39.701Z,101186.94
2023-09-05T17:59:06.434Z,101186.59
2023-09-05T18:01:32.972Z,101193.50
2023-09-05T18:04:06.722Z,101185.66
2023-09-05T18:06:47.872Z,101193.69
2023-09-05T18:09:31.050Z,101202.44
2023-09-05T18:11:58.047Z,101205.41
2023-09-05T18:14:47.066Z,101203.59
2023-09-05T18:17:13.578Z,101205.13
2023-09-05T18:19:46.965Z,101207.75
2023-09-05T18:22:13.528Z,101209.53
2023-09-05T18:24:42.678Z,101206.59
2023-09-05T18:27:11.182Z,101208.34
2023-09-05T18:29:37.615Z,101206.47
2023-09-05T18:32:04.175Z,101206.84
2023-09-05T18:34:46.381Z,101205.78
2023-09-05T18:37:16.596Z,101215.81
2023-09-05T18:39:43.477Z,101213.66
2023-09-05T18:42:12.053Z,101224.22
2023-09-05T18:44:40.068Z,101228.16
2023-09-05T18:47:08.389Z,101234.75
2023-09-05T18:49:35.624Z,101236.72
2023-09-05T18:52:07.119Z,101232.06
2023-09-05T18:54:34.978Z,101231.22
2023-09-05T18:57:01.531Z,101237.59
2023-09-05T18:59:28.693Z,101242.88
2023-09-05T19:01:55.458Z,101247.81
2023-09-05T19:04:22.499Z,101243.66
2023-09-05T19:06:49.995Z,101245.00
2023-09-05T19:09:18.802Z,101253.59
2023-09-05T19:11:46.408Z,101254.13
2023-09-05T19:14:12.878Z,101267.41
2023-09-05T19:16:39.720Z,101251.34
2023-09-05T19:19:06.911Z,101248.00
2023-09-05T19:21:35.426Z,101246.56
2023-09-05T19:24:02.490Z,101245.97
2023-09-05T19:26:28.915Z,101242.59
2023-09-05T19:28:55.304Z,101241.75
2023-09-05T19:31:21.638Z,101240.09
2023-09-05T19:33:48.181Z,101248.63
2023-09-05T19:36:14.645Z,101240.59
2023-09-05T19:38:41.108Z,101241.94
2023-09-05T19:41:08.788Z,101252.94
2023-09-05T19:43:35.256Z,101245.97
2023-09-05T19:46:01.664Z,101240.41
2023-09-05T19:48:28.372Z,101233.19
2023-09-05T19:50:58.011Z,101235.34
2023-09-05T19:53:24.639Z,101241.13
2023-09-05T19:55:51.232Z,101235.56
2023-09-05T19:58:18.859Z,101241.06
2023-09-05T20:00:45.867Z,101235.75
2023-09-05T20:03:14.059Z,101240.16
2023-09-05T20:05:40.928Z,101232.91
2023-09-05T20:08:07.460Z,101238.38
2023-09-05T20:10:33.772Z,101230.03
2023-09-05T20:13:00.166Z,101228.91
2023-09-05T20:15:26.781Z,101232.47
2023-09-05T20:18:34.231Z,101241.50
2023-09-05T20:21:02.195Z,101239.56
2023-09-05T20:23:28.550Z,101224.91
2023-09-05T20:25:54.944Z,101232.59
2023-09-05T20:28:21.500Z,101236.13
2023-09-05T20:30:51.456Z,101239.66
2023-09-05T20:33:18.289Z,101231.91
2023-09-05T20:35:44.797Z,101234.63
2023-09-05T20:38:12.792Z,101229.63
2023-09-05T20:40:39.179Z,101229.59
2023-09-05T20:43:05.622Z,101233.09
2023-09-05T20:45:33.427Z,101227.50
2023-09-05T20:47:59.828Z,101228.31
2023-09-05T20:50:26.262Z,101230.72
2023-09-05T20:52:52.788Z,101229.84
2023-09-05T20:55:19.544Z,101226.50
2023-09-05T20:57:45.939Z,101231.97
2023-09-05T21:00:12.827Z,101237.41
2023-09-05T21:02:39.334Z,101231.59
2023-09-05T21:05:06.548Z,101231.28
2023-09-05T21:07:36.247Z,101230.41
2023-09-05T21:10:04.628Z,101227.31
2023-09-05T21:12:31.385Z,101224.47
2023-09-05T21:14:58.979Z,101226.09
2023-09-05T21:17:25.561Z,101233.19
2023-09-05T21:19:52.570Z,101227.59
2023-09-05T21:22:23.222Z,101225.34
2023-09-05T21:24:51.224Z,101223.34
2023-09-05T21:27:17.753Z,101222.22
2023-09-05T21:29:44.196Z,101220.44
2023-09-05T21:32:11.000Z,101222.91
2023-09-05T21:34:38.038Z,101221.75
2023-09-05T21:37:04.888Z,101217.81
2023-09-05T21:39:33.215Z,101224.09
2023-09-05T21:41:59.574Z,101219.91
2023-09-05T21:44:25.900Z,101226.16
2023-09-05T21:46:52.314Z,101231.34
2023-09-05T21:49:18.637Z,101217.53
2023-09-05T21:51:45.081Z,101223.78
2023-09-05T21:54:11.634Z,101221.78
2023-09-05T21:56:39.047Z,101214.50
2023-09-05T21:59:05.539Z,101217.16
2023-09-05T22:01:34.466Z,101214.31
2023-09-05T22:04:01.403Z,101219.78
2023-09-05T22:06:28.190Z,101215.25
2023-09-05T22:09:01.375Z,101216.84
2023-09-05T22:11:28.517Z,101211.75
2023-09-05T22:13:55.013Z,101217.19
2023-09-05T22:16:21.451Z,101215.41
2023-09-05T22:18:47.913Z,101219.75
2023-09-05T22:21:15.420Z,101223.22
2023-09-05T22:23:41.895Z,101227.53
2023-09-05T22:26:09.175Z,101226.63
2023-09-05T22:28:35.898Z,101223.75
2023-09-05T22:31:05.709Z,101221.47
2023-09-05T22:33:32.765Z,101227.72
2023-09-05T22:35:59.673Z,101226.56
2023-09-05T22:38:29.262Z,101231.13
2023-09-05T22:40:58.934Z,101232.94
2023-09-05T22:43:25.684Z,101232.84
2023-09-05T22:45:52.132Z,101232.72
2023-09-05T22:48:18.731Z,101237.84
2023-09-05T22:50:55.105Z,101236.91
2023-09-05T22:53:21.515Z,101240.38
2023-09-05T22:55:48.421Z,101240.88
2023-09-05T22:58:22.675Z,101243.28
2023-09-05T23:00:50.572Z,101242.94
2023-09-05T23:03:20.372Z,101235.44
2023-09-05T23:05:46.884Z,101247.72
2023-09-05T23:08:13.209Z,101248.19
2023-09-05T23:10:43.010Z,101248.06
2023-09-05T23:13:09.451Z,101249.63
2023-09-05T23:15:35.837Z,101244.59
2023-09-05T23:18:02.409Z,101251.63
2023-09-05T23:20:35.457Z,101250.22
2023-09-05T23:23:02.431Z,101248.44
2023-09-05T23:25:30.273Z,101252.75
2023-09-05T23:27:56.723Z,101252.63
2023-09-05T23:30:23.301Z,101256.91
2023-09-05T23:32:50.574Z,101258.47
2023-09-05T23:35:22.313Z,101261.91
2023-09-05T23:37:48.773Z,101257.97
2023-09-05T23:40:20.067Z,101257.84
2023-09-05T23:42:46.534Z,101252.22
2023-09-05T23:45:16.219Z,101261.19
2023-09-05T23:47:51.310Z,101256.41
2023-09-05T23:50:27.618Z,101255.41
2023-09-05T23:52:54.349Z,101247.88
2023-09-05T23:55:27.424Z,101257.63
2023-09-05T23:57:59.904Z,101260.50
